| time (UTC) | temp F | wind direction | speed knots | gust knots | rain 1hr in | rain 24hr in | rain mn in | humidity % | barometer mb |
| 20260906062624 | 72 | 344 | 1.7 | 4.3 | 0.00 | 0.75 | 0.00 | 95 | 1013.1 |
| 20260906062057 | 72 | 325 | 1.7 | 4.3 | 0.00 | 0.75 | 0.00 | 94 | 1013.1 |
| 20260906061554 | 72 | 314 | 1.7 | 5.2 | 0.00 | 0.75 | 0.00 | 94 | 1013.2 |
| 20260906061502 | 71 | 314 | 0.9 | 5.2 | 0.00 | 0.75 | 0.00 | 94 | 1011.8 |
| 20260906061232 | 72 | 328 | 1.7 | 7.0 | 0.00 | 0.75 | 0.00 | 94 | 1013.2 |
| 20260906061122 | 72 | 313 | 1.7 | 7.0 | 0.00 | 0.75 | 0.00 | 94 | 1013.2 |
| 20260906060021 | 72 | 312 | 0.9 | 3.5 | 0.00 | 0.75 | 0.00 | 94 | 1013.2 |
| 20260906055454 | 72 | 312 | 0.9 | 3.5 | 0.00 | 0.75 | 0.00 | 95 | 1013.3 |
| 20260906054932 | 72 | 301 | 0.9 | 3.5 | 0.00 | 0.75 | 0.00 | 95 | 1013.2 |
| 20260906054557 | 72 | 352 | 0.0 | 1.7 | 0.00 | 0.75 | 0.00 | 95 | 1011.8 |
| 20260906054406 | 73 | 352 | 0.9 | 1.7 | 0.00 | 0.75 | 0.00 | 95 | 1013.1 |
| 20260906054054 | 73 | 352 | 0.9 | 3.5 | 0.00 | 0.75 | 0.00 | 94 | 1013.1 |
| 20260906053332 | 73 | 352 | 1.7 | 3.5 | 0.00 | 0.75 | 0.00 | 95 | 1013.1 |
| 20260906053105 | 72 | 352 | 0.9 | 3.5 | 0.00 | 0.75 | 0.00 | 94 | 1011.8 |
| 20260906052807 | 73 | 352 | 1.7 | 4.3 | 0.00 | 0.75 | 0.00 | 95 | 1013.1 |
| 20260906052238 | 73 | 352 | 1.7 | 4.3 | 0.00 | 0.75 | 0.00 | 95 | 1013.1 |
| 20260906051732 | 73 | 329 | 1.7 | 7.8 | 0.00 | 0.75 | 0.00 | 95 | 1013.1 |
| 20260906051531 | 72 | 328 | 1.7 | 7.8 | 0.00 | 0.75 | 0.00 | 95 | 1011.7 |
| 20260906051232 | 73 | 322 | 1.7 | 7.8 | 0.00 | 0.75 | 0.00 | 95 | 1013.0 |
| 20260906050728 | 73 | 350 | 0.9 | 3.5 | 0.00 | 0.75 | 0.00 | 95 | 1013.1 |
| 20260906050225 | 73 | 331 | 0.9 | 2.6 | 0.00 | 0.75 | 0.00 | 95 | 1013.1 |
| 20260906050052 | 73 | 331 | 0.9 | 2.6 | 0.00 | 0.75 | 0.00 | 95 | 1011.7 |
| 20260906045713 | 73 | 331 | 0.9 | 2.6 | 0.00 | 0.75 | 0.00 | 95 | 1013.0 |
| 20260906045652 | 73 | 330 | 0.9 | 2.6 | 0.00 | 0.75 | 0.00 | 95 | 1012.8 |
| 20260906044648 | 73 | 330 | 0.9 | 3.5 | 0.00 | 0.75 | 0.00 | 94 | 1012.7 |
| 20260906044528 | 73 | 330 | 0.0 | 2.6 | 0.00 | 0.75 | 0.00 | 94 | 1011.3 |
| 20260906044145 | 73 | 330 | 0.9 | 3.5 | 0.00 | 0.75 | 0.00 | 94 | 1012.5 |
| 20260906043642 | 73 | 330 | 1.7 | 4.3 | 0.00 | 0.75 | 0.00 | 94 | 1012.5 |
| 20260906043116 | 74 | 326 | 2.6 | 4.3 | 0.00 | 0.75 | 0.00 | 95 | 1012.4 |
| 20260906043046 | 73 | 327 | 1.7 | 4.3 | 0.00 | 0.75 | 0.00 | 95 | 1011.1 |
| 20260906042551 | 74 | 330 | 2.6 | 4.3 | 0.00 | 0.75 | 0.00 | 95 | 1012.3 |
| 20260906042047 | 74 | 311 | 1.7 | 4.3 | 0.00 | 0.75 | 0.00 | 95 | 1012.3 |
| 20260906041551 | 73 | 343 | 0.9 | 3.5 | 0.00 | 0.75 | 0.00 | 95 | 1010.9 |
| 20260906041522 | 74 | 324 | 1.7 | 3.5 | 0.00 | 0.75 | 0.00 | 95 | 1012.2 |
| 20260906040954 | 74 | 324 | 1.7 | 3.5 | 0.00 | 0.75 | 0.00 | 95 | 1012.2 |
| 20260906040450 | 74 | 326 | 1.7 | 2.6 | 0.00 | 0.75 | 0.00 | 95 | 1012.2 |
| 20260906040029 | 73 | 302 | 0.9 | 5.2 | 0.00 | 0.75 | 0.00 | 95 | 1010.9 |
| 20260906035948 | 74 | 302 | 0.9 | 5.2 | 0.00 | 0.75 | 0.75 | 95 | 1012.2 |
| 20260906035432 | 74 | 332 | 0.9 | 2.6 | 0.00 | 0.75 | 0.75 | 95 | 1012.3 |
| 20260906034915 | 74 | 331 | 0.9 | 2.6 | 0.00 | 0.75 | 0.75 | 95 | 1012.3 |
| 20260906034606 | 74 | 333 | 0.0 | 2.6 | 0.00 | 0.75 | 0.75 | 95 | 1011.0 |
| 20260906034416 | 74 | 333 | 0.9 | 2.6 | 0.00 | 0.75 | 0.75 | 95 | 1012.3 |
| 20260906033913 | 74 | 334 | 1.7 | 3.5 | 0.00 | 0.75 | 0.75 | 95 | 1012.2 |
| 20260906033411 | 74 | 334 | 0.9 | 3.5 | 0.00 | 0.75 | 0.75 | 95 | 1012.1 |
| 20260906033134 | 74 | 334 | 0.9 | 2.6 | 0.00 | 0.75 | 0.75 | 95 | 1012.2 |
| 20260906033101 | 74 | 334 | 0.9 | 2.6 | 0.00 | 0.75 | 0.75 | 95 | 1010.8 |
| 20260906032612 | 74 | 334 | 0.9 | 2.6 | 0.00 | 0.75 | 0.75 | 95 | 1012.3 |
| 20260906031827 | 74 | 335 | 0.9 | 2.6 | 0.00 | 0.75 | 0.75 | 95 | 1012.2 |
| 20260906031600 | 74 | 335 | 0.0 | 2.6 | 0.00 | 0.75 | 0.75 | 95 | 1010.9 |
| 20260906031307 | 74 | 334 | 0.9 | 4.3 | 0.00 | 0.75 | 0.75 | 95 | 1012.2 |
| 20260906030808 | 74 | 332 | 0.9 | 4.3 | 0.00 | 0.75 | 0.75 | 96 | 1012.2 |
| 20260906030309 | 74 | 332 | 0.9 | 3.5 | 0.00 | 0.75 | 0.75 | 96 | 1012.2 |
| 20260906030047 | 73 | 331 | 0.9 | 3.5 | 0.00 | 0.75 | 0.75 | 96 | 1010.9 |
| 20260906025807 | 74 | 332 | 0.9 | 3.5 | 0.00 | 0.75 | 0.75 | 96 | 1012.2 |
| 20260906025242 | 73 | 332 | 0.0 | 3.5 | 0.00 | 0.75 | 0.75 | 96 | 1012.3 |
| 20260906025003 | 73 | 53 | 0.0 | 0.9 | 0.00 | 0.75 | 0.75 | 96 | 1012.3 |
| 20260906024516 | 72 | 53 | 0.0 | 0.9 | 0.00 | 0.75 | 0.75 | 96 | 1011.0 |
| 20260906024223 | 72 | 53 | 0.0 | 0.9 | 0.00 | 0.75 | 0.75 | 95 | 1012.3 |
| 20260906023657 | 72 | 53 | 0.0 | 0.0 | 0.00 | 0.75 | 0.75 | 95 | 1012.3 |
| 20260906023157 | 72 | 53 | 0.0 | 0.0 | 0.00 | 0.75 | 0.75 | 95 | 1012.3 |
| 20260906023107 | 71 | 53 | 0.0 | 0.0 | 0.00 | 0.75 | 0.75 | 95 | 1011.0 |
| 20260906022659 | 72 | 53 | 0.0 | 0.0 | 0.00 | 0.75 | 0.75 | 95 | 1012.3 |
| 20260906022133 | 72 | 53 | 0.0 | 0.0 | 0.00 | 0.75 | 0.75 | 95 | 1012.3 |
| 20260906021633 | 72 | 53 | 0.0 | 0.0 | 0.00 | 0.75 | 0.75 | 95 | 1012.4 |
| 20260906021537 | 71 | 53 | 0.0 | 0.0 | 0.00 | 0.75 | 0.75 | 95 | 1011.2 |
| 20260906021133 | 72 | 53 | 0.0 | 0.0 | 0.00 | 0.75 | 0.75 | 94 | 1012.4 |
| 20260906020632 | 72 | 53 | 0.0 | 0.9 | 0.00 | 0.75 | 0.75 | 94 | 1012.5 |
| 20260906020135 | 72 | 53 | 0.0 | 0.9 | 0.00 | 0.75 | 0.75 | 94 | 1012.5 |
| 20260906020021 | 71 | 53 | 0.0 | 0.9 | 0.00 | 0.75 | 0.75 | 94 | 1011.2 |
| 20260906015629 | 72 | 53 | 0.0 | 0.0 | 0.00 | 0.75 | 0.75 | 94 | 1012.6 |
| 20260906015106 | 72 | 53 | 0.0 | 1.7 | 0.00 | 0.75 | 0.75 | 94 | 1012.7 |
| 20260906014600 | 72 | 53 | 0.0 | 1.7 | 0.00 | 0.75 | 0.75 | 94 | 1012.7 |
| 20260906014507 | 72 | 53 | 0.0 | 0.9 | 0.00 | 0.75 | 0.75 | 94 | 1011.3 |
| 20260906014058 | 72 | 53 | 0.0 | 1.7 | 0.00 | 0.75 | 0.75 | 94 | 1012.7 |
| 20260906014030 | 72 | 53 | 0.0 | 1.7 | 0.00 | 0.75 | 0.75 | 94 | 1012.7 |
| 20260906013308 | 72 | 28 | 0.0 | 0.9 | 0.00 | 0.75 | 0.75 | 94 | 1012.7 |
| 20260906013020 | 72 | 28 | 0.0 | 0.9 | 0.00 | 0.75 | 0.75 | 94 | 1011.4 |
| 20260906012520 | 72 | 27 | 0.9 | 2.6 | 0.00 | 0.75 | 0.75 | 95 | 1012.5 |
| 20260906012016 | 72 | 27 | 0.0 | 2.6 | 0.00 | 0.75 | 0.75 | 96 | 1012.2 |
| 20260906011555 | 71 | 74 | 0.0 | 1.7 | 0.00 | 0.75 | 0.75 | 95 | 1010.9 |
| 20260906011517 | 71 | 75 | 0.0 | 0.9 | 0.00 | 0.75 | 0.75 | 95 | 1012.2 |
| 20260906011012 | 71 | 76 | 0.0 | 0.0 | 0.00 | 0.75 | 0.75 | 94 | 1012.0 |
| 20260906010511 | 71 | 76 | 0.0 | 0.0 | 0.00 | 0.75 | 0.75 | 94 | 1011.8 |
| 20260906010109 | 71 | 76 | 0.0 | 0.0 | 0.00 | 0.75 | 0.75 | 94 | 1010.4 |
| 20260906005941 | 71 | 76 | 0.0 | 0.0 | 0.00 | 0.75 | 0.75 | 94 | 1011.7 |
| 20260906005619 | 71 | 76 | 0.0 | 0.0 | 0.00 | 0.75 | 0.75 | 93 | 1011.6 |
| 20260906005508 | 71 | 76 | 0.0 | 0.0 | 0.00 | 0.75 | 0.75 | 93 | 1011.6 |
| 20260906004537 | 71 | 76 | 0.0 | 0.0 | 0.00 | 0.75 | 0.75 | 93 | 1010.3 |
| 20260906004410 | 71 | 76 | 0.0 | 0.9 | 0.00 | 0.75 | 0.75 | 93 | 1011.6 |
| 20260906003908 | 71 | 76 | 0.9 | 4.3 | 0.00 | 0.75 | 0.75 | 93 | 1011.6 |
| 20260906003403 | 71 | 76 | 0.0 | 4.3 | 0.00 | 0.75 | 0.75 | 93 | 1011.7 |
| 20260906003125 | 71 | 355 | 0.0 | 0.9 | 0.00 | 0.75 | 0.75 | 92 | 1011.7 |
| 20260906003051 | 71 | 355 | 0.0 | 0.9 | 0.00 | 0.75 | 0.75 | 92 | 1010.4 |
| 20260906002349 | 71 | 355 | 0.0 | 1.7 | 0.03 | 0.75 | 0.75 | 92 | 1011.5 |
| 20260906001853 | 71 | 355 | 0.9 | 1.7 | 0.23 | 0.75 | 0.75 | 92 | 1011.4 |
| 20260906001505 | 71 | 355 | 0.0 | 1.7 | 0.35 | 0.75 | 0.75 | 92 | 1010.0 |
| 20260906001325 | 71 | 356 | 0.9 | 2.6 | 0.50 | 0.75 | 0.75 | 92 | 1011.3 |
| 20260906000757 | 71 | 357 | 0.9 | 2.6 | 0.69 | 0.75 | 0.75 | 92 | 1011.1 |
| 20260906000256 | 71 | 357 | 0.9 | 1.7 | 0.69 | 0.75 | 0.75 | 91 | 1011.2 |
| 20260906000011 | 71 | 359 | 0.0 | 1.7 | 0.69 | 0.75 | 0.75 | 90 | 1009.9 |
| 20260905235731 | 71 | 359 | 0.9 | 1.7 | 0.69 | 0.75 | 0.75 | 90 | 1011.3 |
| 20260905235202 | 72 | 359 | 0.9 | 2.6 | 0.69 | 0.75 | 0.75 | 89 | 1011.4 |
| 20260905234925 | 72 | 3 | 1.7 | 5.2 | 0.69 | 0.75 | 0.75 | 89 | 1011.5 |
| 20260905234543 | 71 | 4 | 0.9 | 3.5 | 0.69 | 0.75 | 0.75 | 88 | 1010.1 |
| 20260905234133 | 71 | 357 | 1.7 | 5.2 | 0.69 | 0.75 | 0.75 | 88 | 1011.3 |
| 20260905233606 | 71 | 355 | 2.6 | 26.1 | 0.69 | 0.75 | 0.75 | 88 | 1011.2 |
| 20260905233103 | 71 | 347 | 6.1 | 26.1 | 0.69 | 0.75 | 0.75 | 86 | 1011.3 |
| 20260905233043 | 71 | 347 | 2.6 | 21.7 | 0.69 | 0.75 | 0.75 | 86 | 1009.9 |
| 20260905232549 | 71 | 264 | 10.4 | 32.2 | 0.68 | 0.74 | 0.74 | 84 | 1011.7 |
| 20260905232048 | 72 | 222 | 10.4 | 32.2 | 0.53 | 0.59 | 0.63 | 82 | 1012.5 |
| 20260905231546 | 76 | 233 | 8.7 | 20.9 | 0.31 | 0.37 | 0.37 | 76 | 1011.3 |
| 20260905231521 | 77 | 131 | 6.1 | 17.4 | 0.27 | 0.33 | 0.35 | 76 | 1012.8 |
| 20260905231234 | 85 | 202 | 3.5 | 17.4 | 0.02 | 0.08 | 0.08 | 66 | 1012.8 |
| 20260905230513 | 86 | 328 | 2.6 | 8.7 | 0.00 | 0.06 | 0.06 | 68 | 1011.0 |
| 20260905230028 | 86 | 335 | 1.7 | 8.7 | 0.00 | 0.06 | 0.06 | 69 | 1009.9 |
| 20260905225946 | 87 | 353 | 1.7 | 3.5 | 0.00 | 0.06 | 0.06 | 68 | 1011.3 |
| 20260905225416 | 87 | 354 | 1.7 | 3.5 | 0.00 | 0.06 | 0.06 | 67 | 1010.3 |
| 20260905224914 | 87 | 221 | 0.9 | 1.7 | 0.00 | 0.06 | 0.06 | 66 | 1010.7 |
| 20260905224554 | 87 | 221 | 0.0 | 1.7 | 0.00 | 0.06 | 0.06 | 66 | 1009.2 |
| 20260905224347 | 87 | 221 | 0.0 | 1.7 | 0.00 | 0.06 | 0.06 | 65 | 1010.6 |
| 20260905223842 | 87 | 221 | 0.0 | 1.7 | 0.00 | 0.06 | 0.06 | 65 | 1010.8 |
| 20260905223341 | 87 | 222 | 0.9 | 1.7 | 0.00 | 0.06 | 0.06 | 64 | 1010.7 |
| 20260905223051 | 87 | 225 | 0.0 | 1.7 | 0.00 | 0.06 | 0.06 | 65 | 1009.3 |
| 20260905223036 | 88 | 224 | 0.9 | 1.7 | 0.00 | 0.06 | 0.06 | 65 | 1010.8 |
| 20260905222311 | 88 | 220 | 0.9 | 2.6 | 0.00 | 0.06 | 0.06 | 64 | 1011.0 |
| 20260905221743 | 89 | 220 | 0.9 | 4.3 | 0.00 | 0.06 | 0.06 | 63 | 1010.7 |
| 20260905221555 | 88 | 219 | 0.9 | 4.3 | 0.00 | 0.06 | 0.06 | 62 | 1009.2 |
| 20260905221242 | 89 | 221 | 1.7 | 4.3 | 0.00 | 0.06 | 0.06 | 62 | 1010.7 |
| 20260905220715 | 90 | 264 | 0.9 | 3.5 | 0.00 | 0.06 | 0.06 | 60 | 1010.8 |
| 20260905220150 | 90 | 287 | 0.9 | 2.6 | 0.00 | 0.06 | 0.06 | 61 | 1010.6 |
| 20260905220105 | 90 | 287 | 0.9 | 2.6 | 0.00 | 0.06 | 0.06 | 61 | 1009.2 |
| 20260905215650 | 90 | 287 | 0.9 | 2.6 | 0.00 | 0.06 | 0.06 | 63 | 1010.5 |
| 20260905215340 | 91 | 199 | 0.9 | 2.6 | 0.00 | 0.06 | 0.06 | 59 | 1010.5 |
| 20260905214806 | 91 | 199 | 1.7 | 7.0 | 0.00 | 0.06 | 0.06 | 59 | 1010.6 |
| 20260905214606 | 91 | 199 | 0.0 | 7.0 | 0.00 | 0.12 | 0.06 | 59 | 1009.2 |
| 20260905213538 | 92 | 165 | 1.7 | 5.2 | 0.00 | 0.06 | 0.06 | 58 | 1010.5 |
| 20260905213036 | 92 | 213 | 0.9 | 2.6 | 0.00 | 0.08 | 0.06 | 56 | 1010.6 |
| 20260905213022 | 92 | 211 | 0.9 | 2.6 | 0.00 | 0.12 | 0.06 | 56 | 1009.2 |
| 20260905212511 | 92 | 213 | 0.9 | 3.5 | 0.00 | 0.11 | 0.06 | 57 | 1010.7 |
| 20260905212008 | 92 | 326 | 0.9 | 2.6 | 0.00 | 0.12 | 0.06 | 57 | 1010.8 |
| 20260905211716 | 92 | 325 | 0.9 | 2.6 | 0.00 | 0.12 | 0.06 | 57 | 1010.9 |
| 20260905211631 | 92 | 325 | 0.9 | 2.6 | 0.00 | 0.12 | 0.06 | 57 | 1009.5 |
| 20260905210957 | 92 | 326 | 0.9 | 2.6 | 0.00 | 0.12 | 0.06 | 57 | 1010.9 |
| 20260905210429 | 92 | 297 | 0.9 | 2.6 | 0.00 | 0.12 | 0.06 | 57 | 1010.9 |
| 20260905210006 | 92 | 297 | 0.9 | 2.6 | 0.00 | 0.12 | 0.06 | 55 | 1009.6 |
| 20260905205925 | 93 | 297 | 0.9 | 2.6 | 0.00 | 0.12 | 0.06 | 55 | 1010.9 |
| 20260905205402 | 93 | 297 | 0.9 | 2.6 | 0.00 | 0.12 | 0.06 | 56 | 1011.0 |
| 20260905204858 | 92 | 186 | 0.9 | 5.2 | 0.00 | 0.12 | 0.06 | 56 | 1011.0 |
| 20260905204608 | 92 | 186 | 0.0 | 5.2 | 0.00 | 0.12 | 0.06 | 56 | 1009.7 |
| 20260905204550 | 92 | 186 | 1.7 | 5.2 | 0.00 | 0.12 | 0.06 | 56 | 1011.1 |
| 20260905203826 | 92 | 192 | 1.7 | 5.2 | 0.00 | 0.12 | 0.06 | 59 | 1011.2 |
| 20260905203301 | 92 | 246 | 0.9 | 5.2 | 0.00 | 0.12 | 0.06 | 57 | 1011.2 |
| 20260905203025 | 91 | 340 | 0.0 | 5.2 | 0.00 | 0.12 | 0.06 | 59 | 1009.8 |
| 20260905203016 | 92 | 339 | 1.7 | 5.2 | 0.00 | 0.12 | 0.06 | 59 | 1011.2 |
| 20260905202256 | 91 | 336 | 1.7 | 4.3 | 0.00 | 0.12 | 0.06 | 58 | 1011.2 |
| 20260905201728 | 91 | 336 | 1.7 | 4.3 | 0.00 | 0.12 | 0.06 | 57 | 1011.3 |
| 20260905201524 | 91 | 326 | 0.9 | 3.5 | 0.00 | 0.12 | 0.06 | 58 | 1010.0 |
| 20260905201443 | 91 | 326 | 0.9 | 3.5 | 0.00 | 0.12 | 0.06 | 59 | 1011.4 |
| 20260905200658 | 91 | 2 | 0.9 | 2.6 | 0.00 | 0.12 | 0.06 | 59 | 1011.5 |
| 20260905200135 | 90 | 3 | 0.9 | 3.5 | 0.00 | 0.12 | 0.06 | 61 | 1011.5 |
| 20260905200017 | 90 | 3 | 0.0 | 3.5 | 0.00 | 0.12 | 0.06 | 60 | 1010.2 |
| 20260905195629 | 90 | 3 | 0.9 | 6.1 | 0.00 | 0.12 | 0.06 | 60 | 1011.6 |
| 20260905195127 | 90 | 3 | 1.7 | 6.1 | 0.00 | 0.12 | 0.06 | 60 | 1011.7 |
| 20260905194559 | 90 | 315 | 2.6 | 6.1 | 0.00 | 0.12 | 0.06 | 57 | 1011.7 |
| 20260905194507 | 90 | 351 | 1.7 | 6.1 | 0.00 | 0.12 | 0.06 | 57 | 1010.4 |
| 20260905194059 | 92 | 351 | 2.6 | 6.1 | 0.00 | 0.12 | 0.06 | 55 | 1011.8 |
| 20260905193529 | 92 | 315 | 1.7 | 4.3 | 0.00 | 0.12 | 0.06 | 55 | 1011.8 |
| 20260905193110 | 91 | 321 | 1.7 | 4.3 | 0.00 | 0.12 | 0.06 | 55 | 1010.5 |
| 20260905193030 | 92 | 351 | 0.9 | 3.5 | 0.00 | 0.12 | 0.06 | 57 | 1011.9 |
| 20260905192500 | 91 | 20 | 0.9 | 3.5 | 0.00 | 0.12 | 0.06 | 57 | 1012.0 |
| 20260905191957 | 91 | 323 | 1.7 | 6.1 | 0.00 | 0.12 | 0.06 | 56 | 1012.1 |
| 20260905191511 | 91 | 203 | 0.9 | 5.2 | 0.00 | 0.12 | 0.06 | 55 | 1010.8 |
| 20260905191432 | 91 | 203 | 1.7 | 7.0 | 0.00 | 0.12 | 0.06 | 56 | 1012.2 |
| 20260905190906 | 91 | 97 | 2.6 | 7.0 | 0.00 | 0.12 | 0.06 | 57 | 1012.2 |
| 20260905190339 | 90 | 189 | 2.6 | 8.7 | 0.00 | 0.12 | 0.06 | 56 | 1012.3 |
| 20260905190328 | 91 | 196 | 0.9 | 8.7 | 0.00 | 0.12 | 0.06 | 55 | 1012.4 |
| 20260905190027 | 90 | 194 | 2.6 | 8.7 | 0.00 | 0.12 | 0.06 | 55 | 1011.1 |
| 20260905185310 | 90 | 340 | 1.7 | 5.2 | 0.00 | 0.12 | 0.06 | 56 | 1012.4 |
| 20260905184807 | 90 | 338 | 1.7 | 7.0 | 0.00 | 0.12 | 0.06 | 55 | 1012.5 |
| 20260905184534 | 89 | 337 | 1.7 | 4.3 | 0.00 | 0.12 | 0.06 | 55 | 1011.1 |
| 20260905184250 | 89 | 232 | 1.7 | 7.0 | 0.00 | 0.12 | 0.06 | 56 | 1012.5 |
| 20260905183748 | 89 | 172 | 1.7 | 7.0 | 0.00 | 0.12 | 0.06 | 56 | 1012.6 |
| 20260905183247 | 89 | 197 | 1.7 | 7.0 | 0.00 | 0.12 | 0.06 | 57 | 1012.7 |
| 20260905183106 | 89 | 196 | 2.6 | 7.0 | 0.00 | 0.12 | 0.06 | 57 | 1011.5 |
| 20260905182722 | 89 | 3 | 1.7 | 3.5 | 0.00 | 0.12 | 0.06 | 56 | 1012.8 |
| 20260905182156 | 89 | 2 | 1.7 | 3.5 | 0.00 | 0.12 | 0.06 | 56 | 1012.8 |
| 20260905181857 | 89 | 191 | 1.7 | 3.5 | 0.00 | 0.12 | 0.06 | 57 | 1012.8 |
| 20260905181611 | 89 | 191 | 1.7 | 3.5 | 0.00 | 0.12 | 0.06 | 58 | 1011.4 |
| 20260905181330 | 89 | 178 | 0.9 | 3.5 | 0.00 | 0.12 | 0.06 | 60 | 1012.7 |
| 20260905180553 | 88 | 161 | 1.7 | 4.3 | 0.00 | 0.12 | 0.06 | 59 | 1012.7 |
| 20260905180050 | 88 | 201 | 1.7 | 5.2 | 0.00 | 0.12 | 0.06 | 61 | 1012.6 |
| 20260905180018 | 88 | 207 | 0.9 | 4.3 | 0.00 | 0.12 | 0.06 | 61 | 1011.3 |
| 20260905175547 | 88 | 192 | 1.7 | 7.0 | 0.00 | 0.12 | 0.06 | 59 | 1012.6 |
| 20260905175306 | 88 | 136 | 3.5 | 7.0 | 0.00 | 0.12 | 0.06 | 56 | 1012.6 |
| 20260905174554 | 88 | 155 | 2.6 | 7.0 | 0.00 | 0.12 | 0.06 | 57 | 1011.2 |
| 20260905174521 | 89 | 190 | 3.5 | 7.0 | 0.00 | 0.12 | 0.06 | 58 | 1012.6 |
| 20260905174240 | 88 | 201 | 2.6 | 7.0 | 0.00 | 0.12 | 0.06 | 58 | 1012.5 |
| 20260905173523 | 88 | 198 | 2.6 | 7.8 | 0.00 | 0.12 | 0.06 | 57 | 1012.5 |
| 20260905173021 | 87 | 172 | 3.5 | 7.8 | 0.00 | 0.12 | 0.06 | 60 | 1011.0 |
| 20260905172957 | 87 | 168 | 2.6 | 7.8 | 0.00 | 0.12 | 0.06 | 59 | 1012.3 |
| 20260905172719 | 87 | 97 | 1.7 | 6.1 | 0.00 | 0.12 | 0.06 | 58 | 1012.3 |
| 20260905171955 | 87 | 176 | 1.7 | 7.0 | 0.00 | 0.12 | 0.06 | 59 | 1012.3 |
| 20260905171543 | 87 | 142 | 1.7 | 7.0 | 0.00 | 0.12 | 0.06 | 60 | 1011.1 |
| 20260905171459 | 87 | 149 | 1.7 | 7.0 | 0.00 | 0.12 | 0.06 | 63 | 1012.5 |
| 20260905170935 | 86 | 197 | 2.6 | 6.1 | 0.00 | 0.12 | 0.06 | 61 | 1012.6 |
| 20260905170448 | 86 | 126 | 2.6 | 7.0 | 0.00 | 0.12 | 0.06 | 61 | 1012.8 |
| 20260905170013 | 85 | 215 | 2.6 | 6.1 | 0.00 | 0.12 | 0.06 | 61 | 1011.5 |
| 20260905165935 | 86 | 133 | 3.5 | 7.0 | 0.00 | 0.12 | 0.06 | 60 | 1013.0 |
| 20260905165409 | 85 | 115 | 2.6 | 7.0 | 0.00 | 0.12 | 0.06 | 61 | 1013.1 |
| 20260905164848 | 85 | 134 | 2.6 | 4.3 | 0.00 | 0.12 | 0.06 | 60 | 1013.2 |
| 20260905164559 | 85 | 188 | 0.9 | 6.1 | 0.00 | 0.12 | 0.06 | 61 | 1011.8 |
| 20260905164324 | 85 | 189 | 2.6 | 6.1 | 0.00 | 0.12 | 0.06 | 64 | 1013.2 |
| 20260905164051 | 85 | 175 | 1.7 | 5.2 | 0.00 | 0.12 | 0.06 | 61 | 1013.3 |
| 20260905163301 | 84 | 113 | 2.6 | 7.0 | 0.00 | 0.12 | 0.06 | 64 | 1013.4 |
| 20260905163100 | 84 | 147 | 1.7 | 7.0 | 0.00 | 0.12 | 0.06 | 63 | 1012.0 |
| 20260905162803 | 84 | 174 | 2.6 | 7.0 | 0.00 | 0.12 | 0.06 | 64 | 1013.4 |
| 20260905162512 | 84 | 84 | 1.7 | 5.2 | 0.00 | 0.12 | 0.06 | 64 | 1013.4 |
| 20260905161742 | 84 | 129 | 1.7 | 4.3 | 0.00 | 0.12 | 0.06 | 64 | 1013.5 |
| 20260905161603 | 83 | 129 | 0.9 | 4.3 | 0.00 | 0.12 | 0.06 | 63 | 1012.0 |
| 20260905161220 | 83 | 167 | 1.7 | 3.5 | 0.00 | 0.12 | 0.06 | 67 | 1013.5 |
| 20260905160715 | 83 | 170 | 1.7 | 3.5 | 0.00 | 0.12 | 0.06 | 64 | 1013.5 |
| 20260905160210 | 83 | 124 | 2.6 | 7.0 | 0.00 | 0.12 | 0.06 | 64 | 1013.4 |
| 20260905160041 | 82 | 194 | 0.9 | 7.0 | 0.00 | 0.12 | 0.06 | 68 | 1012.0 |
| 20260905155712 | 82 | 194 | 2.6 | 7.0 | 0.00 | 0.12 | 0.06 | 66 | 1013.4 |
| 20260905155434 | 82 | 189 | 3.5 | 6.1 | 0.00 | 0.12 | 0.06 | 67 | 1013.3 |
| 20260905154651 | 81 | 139 | 2.6 | 6.1 | 0.00 | 0.12 | 0.06 | 67 | 1013.4 |
| 20260905154513 | 81 | 62 | 2.6 | 6.1 | 0.00 | 0.12 | 0.06 | 67 | 1012.0 |
| 20260905154141 | 81 | 174 | 2.6 | 6.1 | 0.00 | 0.12 | 0.06 | 68 | 1013.4 |
| 20260905153638 | 80 | 130 | 2.6 | 6.1 | 0.00 | 0.12 | 0.06 | 70 | 1013.4 |
| 20260905153134 | 80 | 142 | 2.6 | 7.0 | 0.00 | 0.12 | 0.06 | 69 | 1013.4 |
| 20260905153040 | 80 | 142 | 2.6 | 6.1 | 0.00 | 0.12 | 0.06 | 68 | 1012.0 |
| 20260905152635 | 80 | 126 | 2.6 | 7.0 | 0.00 | 0.12 | 0.06 | 69 | 1013.3 |
| 20260905152120 | 79 | 96 | 2.6 | 6.1 | 0.00 | 0.12 | 0.06 | 70 | 1013.2 |
| 20260905151835 | 79 | 188 | 3.5 | 6.1 | 0.00 | 0.12 | 0.06 | 71 | 1013.0 |
| 20260905151524 | 78 | 120 | 2.6 | 6.1 | 0.00 | 0.12 | 0.06 | 72 | 1011.7 |
| 20260905151117 | 78 | 141 | 3.5 | 7.8 | 0.00 | 0.12 | 0.06 | 71 | 1013.1 |
| 20260905150556 | 78 | 145 | 3.5 | 8.7 | 0.00 | 0.12 | 0.06 | 72 | 1013.1 |
| 20260905150050 | 77 | 130 | 3.5 | 8.7 | 0.00 | 0.12 | 0.06 | 74 | 1011.7 |
| 20260905150038 | 78 | 130 | 3.5 | 8.7 | 0.00 | 0.12 | 0.06 | 73 | 1013.2 |
| 20260905145536 | 78 | 145 | 2.6 | 8.7 | 0.00 | 0.12 | 0.06 | 74 | 1013.2 |
| 20260905145016 | 77 | 162 | 2.6 | 7.0 | 0.00 | 0.12 | 0.06 | 74 | 1013.2 |
| 20260905144515 | 76 | 113 | 1.7 | 7.0 | 0.00 | 0.12 | 0.06 | 76 | 1011.7 |
| 20260905144453 | 77 | 117 | 2.6 | 7.0 | 0.00 | 0.12 | 0.06 | 76 | 1013.2 |
| 20260905143953 | 77 | 112 | 2.6 | 7.8 | 0.00 | 0.12 | 0.06 | 75 | 1013.2 |
| 20260905143452 | 76 | 146 | 3.5 | 7.8 | 0.00 | 0.12 | 0.06 | 76 | 1013.3 |
| 20260905143055 | 76 | 90 | 2.6 | 7.0 | 0.00 | 0.12 | 0.06 | 76 | 1011.9 |
| 20260905142929 | 76 | 161 | 3.5 | 7.0 | 0.00 | 0.12 | 0.06 | 76 | 1013.3 |
| 20260905142431 | 76 | 119 | 3.5 | 7.8 | 0.00 | 0.12 | 0.06 | 76 | 1013.2 |
| 20260905142400 | 76 | 133 | 3.5 | 7.8 | 0.00 | 0.12 | 0.06 | 77 | 1013.2 |
| 20260905141528 | 75 | 138 | 2.6 | 7.0 | 0.00 | 0.12 | 0.06 | 77 | 1011.9 |
| 20260905141349 | 75 | 145 | 3.5 | 7.0 | 0.00 | 0.12 | 0.06 | 77 | 1013.3 |
| 20260905140823 | 75 | 176 | 2.6 | 7.0 | 0.00 | 0.12 | 0.06 | 78 | 1013.5 |
| 20260905140324 | 75 | 84 | 3.5 | 8.7 | 0.00 | 0.12 | 0.06 | 78 | 1013.6 |
| 20260905140057 | 74 | 147 | 3.5 | 8.7 | 0.00 | 0.12 | 0.06 | 78 | 1012.2 |
| 20260905135759 | 75 | 92 | 3.5 | 8.7 | 0.00 | 0.12 | 0.06 | 78 | 1013.7 |
| 20260905135237 | 75 | 105 | 2.6 | 8.7 | 0.00 | 0.12 | 0.06 | 78 | 1014.0 |
| 20260905134712 | 74 | 108 | 2.6 | 6.1 | 0.00 | 0.12 | 0.06 | 81 | 1014.2 |
| 20260905134533 | 74 | 110 | 2.6 | 6.1 | 0.00 | 0.12 | 0.06 | 82 | 1012.8 |
| 20260905134146 | 74 | 74 | 2.6 | 6.1 | 0.00 | 0.12 | 0.06 | 83 | 1014.3 |
| 20260905133848 | 73 | 88 | 1.7 | 6.1 | 0.00 | 0.12 | 0.06 | 85 | 1014.5 |
| 20260905133317 | 72 | 76 | 0.0 | 4.3 | 0.00 | 0.12 | 0.06 | 85 | 1014.4 |
| 20260905133041 | 72 | 79 | 0.9 | 5.2 | 0.00 | 0.12 | 0.06 | 86 | 1013.0 |
| 20260905132820 | 72 | 31 | 0.9 | 2.6 | 0.00 | 0.12 | 0.06 | 89 | 1014.5 |
| 20260905132032 | 71 | 30 | 0.9 | 2.6 | 0.00 | 0.12 | 0.06 | 87 | 1014.5 |
| 20260905131546 | 71 | 43 | 0.0 | 3.5 | 0.00 | 0.12 | 0.06 | 89 | 1013.1 |
| 20260905131527 | 71 | 43 | 0.9 | 3.5 | 0.00 | 0.12 | 0.06 | 89 | 1014.5 |
| 20260905131249 | 71 | 14 | 0.9 | 5.2 | 0.00 | 0.12 | 0.06 | 88 | 1014.6 |
| 20260905130523 | 71 | 6 | 0.0 | 5.2 | 0.00 | 0.12 | 0.06 | 89 | 1014.7 |
| 20260905130100 | 70 | 353 | 0.0 | 1.7 | 0.00 | 0.12 | 0.06 | 90 | 1013.2 |
| 20260905130019 | 71 | 353 | 0.0 | 2.6 | 0.00 | 0.12 | 0.06 | 90 | 1014.6 |
| 20260905125454 | 71 | 353 | 0.9 | 2.6 | 0.00 | 0.12 | 0.06 | 89 | 1014.5 |
| 20260905124951 | 70 | 353 | 0.9 | 2.6 | 0.00 | 0.12 | 0.06 | 90 | 1014.5 |
| 20260905124537 | 70 | 352 | 0.0 | 2.6 | 0.00 | 0.12 | 0.06 | 90 | 1013.1 |
| 20260905124448 | 70 | 352 | 0.0 | 2.6 | 0.00 | 0.12 | 0.06 | 90 | 1014.5 |
| 20260905123945 | 70 | 357 | 0.0 | 2.6 | 0.00 | 0.12 | 0.06 | 91 | 1014.5 |
| 20260905123704 | 70 | 356 | 0.0 | 2.6 | 0.00 | 0.12 | 0.06 | 90 | 1014.6 |
| 20260905123105 | 69 | 347 | 0.0 | 1.7 | 0.00 | 0.12 | 0.06 | 91 | 1013.1 |
| 20260905122917 | 69 | 348 | 0.0 | 1.7 | 0.00 | 0.12 | 0.06 | 91 | 1014.5 |
| 20260905122412 | 69 | 339 | 0.0 | 1.7 | 0.00 | 0.12 | 0.06 | 92 | 1014.6 |
| 20260905121911 | 69 | 339 | 0.0 | 1.7 | 0.00 | 0.12 | 0.06 | 92 | 1014.5 |
| 20260905121524 | 69 | 338 | 0.0 | 0.9 | 0.00 | 0.12 | 0.06 | 92 | 1013.1 |
| 20260905121407 | 69 | 339 | 0.0 | 0.9 | 0.00 | 0.12 | 0.06 | 92 | 1014.5 |
| 20260905120904 | 69 | 338 | 0.0 | 2.6 | 0.00 | 0.12 | 0.06 | 91 | 1014.6 |
| 20260905120340 | 69 | 342 | 0.0 | 1.7 | 0.00 | 0.12 | 0.06 | 91 | 1014.5 |
| 20260905120113 | 69 | 340 | 0.0 | 2.6 | 0.00 | 0.12 | 0.06 | 91 | 1013.0 |
| 20260905115814 | 69 | 340 | 0.9 | 3.5 | 0.00 | 0.12 | 0.06 | 91 | 1014.3 |
| 20260905115747 | 69 | 340 | 1.7 | 3.5 | 0.00 | 0.12 | 0.06 | 91 | 1014.4 |
| 20260905114803 | 69 | 317 | 1.7 | 4.3 | 0.00 | 0.12 | 0.06 | 91 | 1014.5 |
| 20260905114513 | 68 | 345 | 0.9 | 4.3 | 0.00 | 0.12 | 0.06 | 91 | 1013.2 |
| 20260905114454 | 69 | 325 | 1.7 | 4.3 | 0.00 | 0.12 | 0.06 | 92 | 1014.7 |
| 20260905113732 | 69 | 349 | 1.7 | 5.2 | 0.00 | 0.12 | 0.06 | 92 | 1014.4 |
| 20260905113232 | 68 | 314 | 0.9 | 5.2 | 0.00 | 0.12 | 0.06 | 93 | 1014.7 |
| 20260905113050 | 68 | 334 | 1.7 | 3.5 | 0.00 | 0.12 | 0.06 | 93 | 1013.3 |
| 20260905112704 | 68 | 344 | 0.9 | 3.5 | 0.01 | 0.12 | 0.06 | 93 | 1014.8 |
| 20260905112201 | 68 | 348 | 0.9 | 3.5 | 0.01 | 0.12 | 0.06 | 93 | 1014.7 |
| 20260905111633 | 68 | 354 | 0.9 | 2.6 | 0.04 | 0.12 | 0.06 | 93 | 1014.9 |
| 20260905111542 | 68 | 355 | 0.0 | 2.6 | 0.04 | 0.12 | 0.06 | 93 | 1013.4 |
| 20260905111357 | 68 | 355 | 0.9 | 3.5 | 0.06 | 0.12 | 0.06 | 93 | 1015.0 |
| 20260905110605 | 68 | 330 | 1.7 | 6.1 | 0.06 | 0.12 | 0.06 | 93 | 1014.9 |
| 20260905110100 | 67 | 348 | 0.9 | 6.1 | 0.06 | 0.12 | 0.06 | 93 | 1013.3 |
| 20260905110052 | 68 | 348 | 2.6 | 6.1 | 0.06 | 0.12 | 0.06 | 93 | 1014.7 |
| 20260905105554 | 68 | 337 | 2.6 | 7.0 | 0.06 | 0.12 | 0.06 | 93 | 1014.7 |
| 20260905105030 | 68 | 339 | 2.6 | 7.0 | 0.06 | 0.12 | 0.06 | 92 | 1014.7 |
| 20260905104517 | 67 | 324 | 1.7 | 8.7 | 0.06 | 0.12 | 0.06 | 92 | 1013.4 |
| 20260905104502 | 68 | 319 | 2.6 | 9.6 | 0.06 | 0.12 | 0.06 | 92 | 1014.9 |
| 20260905104225 | 68 | 288 | 4.3 | 10.4 | 0.06 | 0.12 | 0.06 | 91 | 1014.9 |
| 20260905103456 | 68 | 319 | 6.1 | 13.9 | 0.06 | 0.12 | 0.06 | 91 | 1014.4 |
| 20260905103045 | 68 | 300 | 4.3 | 13.0 | 0.06 | 0.12 | 0.06 | 90 | 1012.8 |
| 20260905102952 | 68 | 320 | 6.1 | 13.9 | 0.06 | 0.12 | 0.06 | 90 | 1014.3 |
| 20260905102449 | 69 | 339 | 7.0 | 18.2 | 0.05 | 0.11 | 0.05 | 88 | 1014.5 |
| 20260905102215 | 71 | 320 | 7.8 | 18.2 | 0.04 | 0.10 | 0.04 | 85 | 1015.0 |
| 20260905101546 | 71 | 326 | 7.8 | 20.0 | 0.01 | 0.07 | 0.01 | 81 | 1013.3 |
| 20260905101432 | 72 | 307 | 7.8 | 20.0 | 0.00 | 0.06 | 0.00 | 80 | 1014.9 |
| 20260905101412 | 73 | 259 | 7.8 | 20.0 | 0.00 | 0.06 | 0.00 | 79 | 1015.3 |
| 20260905100432 | 74 | 313 | 8.7 | 22.6 | 0.00 | 0.06 | 0.00 | 79 | 1015.1 |
| 20260905100055 | 73 | 336 | 7.0 | 22.6 | 0.00 | 0.06 | 0.00 | 82 | 1013.6 |
| 20260905095904 | 74 | 315 | 7.0 | 22.6 | 0.00 | 0.06 | 0.00 | 84 | 1015.0 |
| 20260905095601 | 74 | 328 | 2.6 | 15.6 | 0.00 | 0.06 | 0.00 | 89 | 1014.5 |
| 20260905094836 | 74 | 326 | 0.0 | 4.3 | 0.00 | 0.06 | 0.00 | 91 | 1013.5 |
| 20260905094544 | 74 | 5 | 0.0 | 0.0 | 0.00 | 0.06 | 0.00 | 91 | 1011.5 |
| 20260905094305 | 74 | 5 | 0.0 | 0.0 | 0.00 | 0.06 | 0.00 | 91 | 1012.8 |
| 20260905094032 | 74 | 5 | 0.0 | 0.0 | 0.00 | 0.06 | 0.00 | 91 | 1012.6 |
| 20260905093237 | 74 | 5 | 0.0 | 0.0 | 0.00 | 0.06 | 0.00 | 91 | 1012.7 |
| 20260905093100 | 74 | 5 | 0.0 | 0.0 | 0.00 | 0.06 | 0.00 | 91 | 1011.2 |
| 20260905092731 | 74 | 5 | 0.0 | 0.0 | 0.00 | 0.06 | 0.00 | 91 | 1012.7 |
| 20260905092227 | 74 | 5 | 0.0 | 0.0 | 0.00 | 0.06 | 0.00 | 90 | 1012.7 |
| 20260905091933 | 74 | 5 | 0.0 | 0.0 | 0.00 | 0.06 | 0.00 | 90 | 1012.7 |
| 20260905091610 | 74 | 5 | 0.0 | 0.0 | 0.00 | 0.06 | 0.00 | 90 | 1011.2 |
| 20260905091407 | 74 | 5 | 0.0 | 0.0 | 0.00 | 0.06 | 0.00 | 90 | 1012.6 |
| 20260905090607 | 74 | 5 | 0.0 | 0.0 | 0.00 | 0.06 | 0.00 | 90 | 1012.7 |
| 20260905090106 | 74 | 5 | 0.0 | 0.0 | 0.00 | 0.06 | 0.00 | 90 | 1012.6 |
| 20260905090036 | 74 | 5 | 0.0 | 0.0 | 0.00 | 0.06 | 0.00 | 90 | 1011.1 |
| 20260905085553 | 74 | 5 | 0.0 | 0.0 | 0.00 | 0.06 | 0.00 | 89 | 1012.5 |
| 20260905085054 | 74 | 5 | 0.0 | 0.0 | 0.00 | 0.06 | 0.00 | 89 | 1012.4 |
| 20260905084740 | 75 | 5 | 0.0 | 0.0 | 0.00 | 0.06 | 0.00 | 89 | 1012.4 |
| 20260905084542 | 74 | 5 | 0.0 | 0.0 | 0.00 | 0.06 | 0.00 | 89 | 1010.9 |
| 20260905084022 | 75 | 5 | 0.0 | 0.0 | 0.00 | 0.06 | 0.00 | 89 | 1012.5 |
| 20260905083715 | 75 | 5 | 0.0 | 0.0 | 0.00 | 0.06 | 0.00 | 89 | 1012.8 |
| 20260905083056 | 74 | 5 | 0.0 | 0.0 | 0.00 | 0.06 | 0.00 | 89 | 1011.3 |
| 20260905082927 | 75 | 5 | 0.0 | 0.0 | 0.00 | 0.06 | 0.00 | 89 | 1012.8 |
| 20260905082428 | 75 | 5 | 0.0 | 0.0 | 0.00 | 0.06 | 0.00 | 89 | 1012.8 |
| 20260905081900 | 75 | 5 | 0.0 | 0.0 | 0.00 | 0.06 | 0.00 | 89 | 1012.8 |
| 20260905081524 | 74 | 5 | 0.0 | 0.0 | 0.00 | 0.06 | 0.00 | 89 | 1011.3 |
| 20260905081336 | 75 | 5 | 0.0 | 0.0 | 0.00 | 0.06 | 0.00 | 89 | 1012.7 |
| 20260905080812 | 75 | 5 | 0.0 | 0.9 | 0.00 | 0.06 | 0.00 | 89 | 1012.8 |
| 20260905080243 | 75 | 5 | 0.0 | 0.9 | 0.00 | 0.06 | 0.00 | 89 | 1012.8 |
| 20260905080105 | 74 | 5 | 0.0 | 0.9 | 0.00 | 0.06 | 0.00 | 89 | 1011.2 |
| 20260905075713 | 75 | 5 | 0.0 | 0.9 | 0.00 | 0.06 | 0.00 | 89 | 1012.6 |
| 20260905075145 | 75 | 5 | 0.0 | 0.9 | 0.00 | 0.06 | 0.00 | 89 | 1012.5 |
| 20260905074644 | 75 | 5 | 0.0 | 1.7 | 0.00 | 0.06 | 0.00 | 89 | 1012.4 |
| 20260905074508 | 74 | 5 | 0.0 | 1.7 | 0.00 | 0.06 | 0.00 | 89 | 1010.9 |
| 20260905074114 | 75 | 5 | 0.9 | 1.7 | 0.00 | 0.06 | 0.00 | 89 | 1012.2 |
| 20260905073612 | 75 | 5 | 0.9 | 1.7 | 0.00 | 0.06 | 0.00 | 89 | 1012.1 |
| 20260905073104 | 75 | 5 | 0.0 | 0.9 | 0.00 | 0.06 | 0.00 | 89 | 1010.6 |
| 20260905073046 | 75 | 5 | 0.0 | 0.9 | 0.00 | 0.06 | 0.00 | 89 | 1012.1 |
| 20260905072542 | 75 | 5 | 0.0 | 0.0 | 0.00 | 0.06 | 0.00 | 89 | 1012.0 |
| 20260905072014 | 75 | 5 | 0.0 | 0.0 | 0.00 | 0.06 | 0.00 | 89 | 1012.1 |
| 20260905071510 | 75 | 5 | 0.0 | 0.0 | 0.00 | 0.06 | 0.00 | 88 | 1012.2 |
| 20260905070945 | 75 | 5 | 0.0 | 0.0 | 0.00 | 0.06 | 0.00 | 88 | 1012.0 |
| 20260905070420 | 75 | 5 | 0.0 | 0.0 | 0.00 | 0.06 | 0.00 | 88 | 1012.1 |
| 20260905070408 | 75 | 5 | 0.0 | 0.9 | 0.00 | 0.06 | 0.00 | 88 | 1012.1 |
| 20260905070044 | 75 | 5 | 0.0 | 0.0 | 0.00 | 0.06 | 0.00 | 88 | 1010.6 |
| 20260905065414 | 75 | 5 | 0.0 | 1.7 | 0.00 | 0.06 | 0.00 | 88 | 1012.2 |
| 20260905065113 | 75 | 5 | 0.9 | 2.6 | 0.00 | 0.06 | 0.00 | 88 | 1012.2 |
| 20260905064535 | 75 | 5 | 0.0 | 2.6 | 0.00 | 0.06 | 0.00 | 88 | 1010.8 |
| 20260905064039 | 76 | 5 | 0.0 | 0.9 | 0.00 | 0.06 | 0.00 | 88 | 1012.4 |
| 20260905063501 | 76 | 4 | 0.0 | 1.7 | 0.00 | 0.06 | 0.00 | 87 | 1012.6 |
| 20260905063347 | 76 | 4 | 0.0 | 0.9 | 0.00 | 0.06 | 0.00 | 87 | 1012.5 |
| 20260905063024 | 75 | 4 | 0.0 | 0.9 | 0.00 | 0.06 | 0.00 | 87 | 1011.1 |